sensor_id;sensor_type;location;lat;lon;timestamp;temperature;humidity
21551;DHT22;10936;49.836;7.078;2022-12-08T06:02:25;17.80;94.70
21551;DHT22;10936;49.836;7.078;2022-12-08T06:04:51;17.80;95.00
21551;DHT22;10936;49.836;7.078;2022-12-08T06:07:16;17.80;94.70
21551;DHT22;10936;49.836;7.078;2022-12-08T06:09:42;17.70;94.60
21551;DHT22;10936;49.836;7.078;2022-12-08T06:12:08;17.80;94.60
21551;DHT22;10936;49.836;7.078;2022-12-08T06:14:39;17.80;94.70
21551;DHT22;10936;49.836;7.078;2022-12-08T06:17:05;17.80;94.70
21551;DHT22;10936;49.836;7.078;2022-12-08T06:19:31;17.80;94.70
21551;DHT22;10936;49.836;7.078;2022-12-08T06:21:56;17.80;94.70
21551;DHT22;10936;49.836;7.078;2022-12-08T06:24:22;17.80;94.70
21551;DHT22;10936;49.836;7.078;2022-12-08T06:26:47;17.80;94.60
21551;DHT22;10936;49.836;7.078;2022-12-08T06:29:14;17.80;94.60
21551;DHT22;10936;49.836;7.078;2022-12-08T06:31:39;17.80;94.70
21551;DHT22;10936;49.836;7.078;2022-12-08T06:34:05;17.80;94.60
21551;DHT22;10936;49.836;7.078;2022-12-08T06:36:31;17.80;94.60
21551;DHT22;10936;49.836;7.078;2022-12-08T06:38:57;17.70;94.60
21551;DHT22;10936;49.836;7.078;2022-12-08T06:41:23;17.70;94.60
21551;DHT22;10936;49.836;7.078;2022-12-08T06:43:48;17.70;94.60
21551;DHT22;10936;49.836;7.078;2022-12-08T06:46:17;17.80;94.60
21551;DHT22;10936;49.836;7.078;2022-12-08T06:48:43;17.80;94.60
21551;DHT22;10936;49.836;7.078;2022-12-08T06:51:12;17.80;94.60
21551;DHT22;10936;49.836;7.078;2022-12-08T06:53:39;17.80;94.70
21551;DHT22;10936;49.836;7.078;2022-12-08T06:56:05;17.80;94.60
21551;DHT22;10936;49.836;7.078;2022-12-08T06:58:31;17.80;94.70
21551;DHT22;10936;49.836;7.078;2022-12-08T07:00:56;17.80;94.60
21551;DHT22;10936;49.836;7.078;2022-12-08T07:03:22;17.80;94.60
21551;DHT22;10936;49.836;7.078;2022-12-08T07:05:48;17.80;94.70
21551;DHT22;10936;49.836;7.078;2022-12-08T07:08:13;17.80;94.60
21551;DHT22;10936;49.836;7.078;2022-12-08T07:10:39;17.80;94.60
21551;DHT22;10936;49.836;7.078;2022-12-08T07:13:04;17.80;94.70
21551;DHT22;10936;49.836;7.078;2022-12-08T07:15:30;17.70;94.60
21551;DHT22;10936;49.836;7.078;2022-12-08T07:17:56;17.80;94.60
21551;DHT22;10936;49.836;7.078;2022-12-08T07:20:21;17.80;94.60
21551;DHT22;10936;49.836;7.078;2022-12-08T07:22:48;17.80;94.60
21551;DHT22;10936;49.836;7.078;2022-12-08T07:25:15;17.70;94.60
21551;DHT22;10936;49.836;7.078;2022-12-08T07:27:40;17.80;94.60
21551;DHT22;10936;49.836;7.078;2022-12-08T07:30:06;17.80;94.60
21551;DHT22;10936;49.836;7.078;2022-12-08T07:32:32;17.80;94.60
21551;DHT22;10936;49.836;7.078;2022-12-08T07:34:58;17.80;94.60
21551;DHT22;10936;49.836;7.078;2022-12-08T07:37:23;17.80;94.60
21551;DHT22;10936;49.836;7.078;2022-12-08T07:39:49;17.80;94.60
21551;DHT22;10936;49.836;7.078;2022-12-08T07:42:14;17.90;94.60
21551;DHT22;10936;49.836;7.078;2022-12-08T07:44:40;17.90;94.60
21551;DHT22;10936;49.836;7.078;2022-12-08T07:47:05;17.90;94.50
21551;DHT22;10936;49.836;7.078;2022-12-08T07:49:31;18.00;94.50
21551;DHT22;10936;49.836;7.078;2022-12-08T07:51:56;18.10;94.50
21551;DHT22;10936;49.836;7.078;2022-12-08T07:54:22;18.10;94.50
21551;DHT22;10936;49.836;7.078;2022-12-08T07:56:47;18.20;94.40
21551;DHT22;10936;49.836;7.078;2022-12-08T07:59:13;18.30;94.40
21551;DHT22;10936;49.836;7.078;2022-12-08T08:01:39;18.40;94.40
21551;DHT22;10936;49.836;7.078;2022-12-08T08:04:05;18.50;94.30
21551;DHT22;10936;49.836;7.078;2022-12-08T08:06:32;18.60;94.30
21551;DHT22;10936;49.836;7.078;2022-12-08T08:08:58;18.70;94.20
21551;DHT22;10936;49.836;7.078;2022-12-08T08:11:23;18.80;94.10
21551;DHT22;10936;49.836;7.078;2022-12-08T08:13:50;18.90;94.10
21551;DHT22;10936;49.836;7.078;2022-12-08T08:16:16;19.00;94.00
21551;DHT22;10936;49.836;7.078;2022-12-08T08:18:44;19.10;94.20
21551;DHT22;10936;49.836;7.078;2022-12-08T08:21:10;19.20;93.80
21551;DHT22;10936;49.836;7.078;2022-12-08T08:23:36;19.30;93.80
21551;DHT22;10936;49.836;7.078;2022-12-08T08:26:03;19.40;93.80
21551;DHT22;10936;49.836;7.078;2022-12-08T08:28:29;19.50;93.70
21551;DHT22;10936;49.836;7.078;2022-12-08T08:30:55;19.60;93.60
21551;DHT22;10936;49.836;7.078;2022-12-08T08:33:21;19.70;93.50
21551;DHT22;10936;49.836;7.078;2022-12-08T08:35:47;19.70;93.50
21551;DHT22;10936;49.836;7.078;2022-12-08T08:38:13;19.80;93.40
21551;DHT22;10936;49.836;7.078;2022-12-08T08:40:38;19.90;93.40
21551;DHT22;10936;49.836;7.078;2022-12-08T08:43:05;19.90;93.30
21551;DHT22;10936;49.836;7.078;2022-12-08T08:45:32;20.00;93.30
21551;DHT22;10936;49.836;7.078;2022-12-08T08:47:57;20.10;93.30
21551;DHT22;10936;49.836;7.078;2022-12-08T08:50:23;20.10;93.40
21551;DHT22;10936;49.836;7.078;2022-12-08T08:52:49;20.20;93.20
21551;DHT22;10936;49.836;7.078;2022-12-08T08:55:15;20.20;93.20
21551;DHT22;10936;49.836;7.078;2022-12-08T08:57:41;20.20;93.10
21551;DHT22;10936;49.836;7.078;2022-12-08T09:00:07;20.20;93.10
21551;DHT22;10936;49.836;7.078;2022-12-08T09:02:35;20.30;93.10
21551;DHT22;10936;49.836;7.078;2022-12-08T09:05:01;20.30;93.10
21551;DHT22;10936;49.836;7.078;2022-12-08T09:07:26;20.30;93.10
21551;DHT22;10936;49.836;7.078;2022-12-08T09:09:52;20.30;93.10
21551;DHT22;10936;49.836;7.078;2022-12-08T09:12:17;20.30;93.10
21551;DHT22;10936;49.836;7.078;2022-12-08T09:14:43;20.30;93.10
21551;DHT22;10936;49.836;7.078;2022-12-08T09:17:10;20.30;93.10
21551;DHT22;10936;49.836;7.078;2022-12-08T09:19:35;20.30;93.00
21551;DHT22;10936;49.836;7.078;2022-12-08T09:22:02;20.40;93.10
21551;DHT22;10936;49.836;7.078;2022-12-08T09:24:27;20.40;93.10
21551;DHT22;10936;49.836;7.078;2022-12-08T09:26:53;20.30;93.00
21551;DHT22;10936;49.836;7.078;2022-12-08T09:29:18;20.30;93.00
21551;DHT22;10936;49.836;7.078;2022-12-08T09:31:44;20.40;93.10
21551;DHT22;10936;49.836;7.078;2022-12-08T09:34:11;20.30;93.10
21551;DHT22;10936;49.836;7.078;2022-12-08T09:36:36;20.40;93.10
21551;DHT22;10936;49.836;7.078;2022-12-08T09:39:02;20.30;93.10
21551;DHT22;10936;49.836;7.078;2022-12-08T09:41:36;20.30;93.10
21551;DHT22;10936;49.836;7.078;2022-12-08T09:44:36;20.30;93.10
21551;DHT22;10936;49.836;7.078;2022-12-08T09:47:34;20.30;93.10
21551;DHT22;10936;49.836;7.078;2022-12-08T09:50:09;20.30;93.10
21551;DHT22;10936;49.836;7.078;2022-12-08T09:55:24;20.30;93.20
21551;DHT22;10936;49.836;7.078;2022-12-08T09:57:59;20.30;93.20
21551;DHT22;10936;49.836;7.078;2022-12-08T10:00:26;20.30;93.20
21551;DHT22;10936;49.836;7.078;2022-12-08T10:02:52;20.30;93.30
21551;DHT22;10936;49.836;7.078;2022-12-08T10:05:18;20.20;93.20
21551;DHT22;10936;49.836;7.078;2022-12-08T10:08:07;20.30;93.20
21551;DHT22;10936;49.836;7.078;2022-12-08T10:11:00;20.20;93.20
21551;DHT22;10936;49.836;7.078;2022-12-08T10:13:45;20.20;93.20
21551;DHT22;10936;49.836;7.078;2022-12-08T10:16:33;20.20;93.30
21551;DHT22;10936;49.836;7.078;2022-12-08T10:21:35;20.10;93.20
21551;DHT22;10936;49.836;7.078;2022-12-08T10:24:08;20.10;93.50
21551;DHT22;10936;49.836;7.078;2022-12-08T10:26:35;20.10;93.30
21551;DHT22;10936;49.836;7.078;2022-12-08T10:29:01;20.10;93.30
21551;DHT22;10936;49.836;7.078;2022-12-08T10:31:30;20.10;93.30
21551;DHT22;10936;49.836;7.078;2022-12-08T10:33:58;20.10;93.30
21551;DHT22;10936;49.836;7.078;2022-12-08T10:39:32;20.10;93.30
21551;DHT22;10936;49.836;7.078;2022-12-08T10:42:19;20.10;93.40
21551;DHT22;10936;49.836;7.078;2022-12-08T10:47:37;20.10;93.40
21551;DHT22;10936;49.836;7.078;2022-12-08T10:52:38;20.10;93.40
21551;DHT22;10936;49.836;7.078;2022-12-08T10:55:14;20.00;93.40
21551;DHT22;10936;49.836;7.078;2022-12-08T10:57:40;20.10;93.40
21551;DHT22;10936;49.836;7.078;2022-12-08T11:00:06;20.00;93.40
21551;DHT22;10936;49.836;7.078;2022-12-08T11:02:32;20.00;93.50
21551;DHT22;10936;49.836;7.078;2022-12-08T11:04:58;20.00;93.50
21551;DHT22;10936;49.836;7.078;2022-12-08T11:07:25;20.00;93.50
21551;DHT22;10936;49.836;7.078;2022-12-08T11:09:55;20.00;93.50
21551;DHT22;10936;49.836;7.078;2022-12-08T11:12:25;20.00;93.50
21551;DHT22;10936;49.836;7.078;2022-12-08T11:14:59;20.00;93.60
21551;DHT22;10936;49.836;7.078;2022-12-08T11:17:34;20.00;93.60
21551;DHT22;10936;49.836;7.078;2022-12-08T11:22:38;20.00;93.60
21551;DHT22;10936;49.836;7.078;2022-12-08T11:27:41;20.00;93.70
21551;DHT22;10936;49.836;7.078;2022-12-08T11:30:22;20.00;93.60
21551;DHT22;10936;49.836;7.078;2022-12-08T11:32:52;20.00;93.70
21551;DHT22;10936;49.836;7.078;2022-12-08T11:35:29;20.00;93.70
21551;DHT22;10936;49.836;7.078;2022-12-08T11:38:01;19.90;93.60
21551;DHT22;10936;49.836;7.078;2022-12-08T11:40:33;19.90;93.70
21551;DHT22;10936;49.836;7.078;2022-12-08T11:43:37;19.90;93.70
21551;DHT22;10936;49.836;7.078;2022-12-08T11:46:24;19.90;93.70
21551;DHT22;10936;49.836;7.078;2022-12-08T11:49:03;19.90;93.70
21551;DHT22;10936;49.836;7.078;2022-12-08T11:51:41;19.90;93.70
21551;DHT22;10936;49.836;7.078;2022-12-08T11:57:03;19.90;93.70
21551;DHT22;10936;49.836;7.078;2022-12-08T11:59:38;19.90;93.70
21551;DHT22;10936;49.836;7.078;2022-12-08T12:02:20;19.90;93.70
21551;DHT22;10936;49.836;7.078;2022-12-08T12:04:51;19.90;93.70
21551;DHT22;10936;49.836;7.078;2022-12-08T12:07:45;19.90;93.70
21551;DHT22;10936;49.836;7.078;2022-12-08T12:21:18;19.90;93.70
21551;DHT22;10936;49.836;7.078;2022-12-08T12:24:00;19.90;93.70
21551;DHT22;10936;49.836;7.078;2022-12-08T12:26:30;19.80;93.70
21551;DHT22;10936;49.836;7.078;2022-12-08T12:29:04;19.80;93.70
21551;DHT22;10936;49.836;7.078;2022-12-08T12:31:36;19.80;93.70
21551;DHT22;10936;49.836;7.078;2022-12-08T12:34:06;19.80;93.70
21551;DHT22;10936;49.836;7.078;2022-12-08T12:39:22;19.80;94.10
21551;DHT22;10936;49.836;7.078;2022-12-08T12:41:55;19.90;93.70
21551;DHT22;10936;49.836;7.078;2022-12-08T12:57:21;19.70;93.70
21551;DHT22;10936;49.836;7.078;2022-12-08T13:02:30;19.80;93.60
21551;DHT22;10936;49.836;7.078;2022-12-08T13:07:25;19.90;93.60
21551;DHT22;10936;49.836;7.078;2022-12-08T13:10:14;20.00;93.60
21551;DHT22;10936;49.836;7.078;2022-12-08T13:12:46;19.90;93.50
21551;DHT22;10936;49.836;7.078;2022-12-08T13:15:25;20.00;93.50
21551;DHT22;10936;49.836;7.078;2022-12-08T13:17:57;20.10;93.50
21551;DHT22;10936;49.836;7.078;2022-12-08T13:20:23;20.20;93.40
21551;DHT22;10936;49.836;7.078;2022-12-08T13:33:28;20.40;93.10
21551;DHT22;10936;49.836;7.078;2022-12-08T13:36:23;20.50;93.10
21551;DHT22;10936;49.836;7.078;2022-12-08T13:38:54;20.50;93.10
21551;DHT22;10936;49.836;7.078;2022-12-08T13:41:34;20.60;93.10
21551;DHT22;10936;49.836;7.078;2022-12-08T13:44:05;20.60;93.10
21551;DHT22;10936;49.836;7.078;2022-12-08T13:46:48;20.60;93.00
21551;DHT22;10936;49.836;7.078;2022-12-08T13:49:17;20.60;93.00
21551;DHT22;10936;49.836;7.078;2022-12-08T13:51:47;20.60;93.00
21551;DHT22;10936;49.836;7.078;2022-12-08T13:54:25;20.70;93.00
21551;DHT22;10936;49.836;7.078;2022-12-08T13:56:52;20.60;93.00
21551;DHT22;10936;49.836;7.078;2022-12-08T14:01:46;20.60;93.00
21551;DHT22;10936;49.836;7.078;2022-12-08T14:04:18;20.70;93.00
21551;DHT22;10936;49.836;7.078;2022-12-08T14:06:54;20.60;93.00
21551;DHT22;10936;49.836;7.078;2022-12-08T14:09:22;20.60;93.00
21551;DHT22;10936;49.836;7.078;2022-12-08T14:11:55;20.70;93.00
21551;DHT22;10936;49.836;7.078;2022-12-08T14:14:30;20.60;93.00
21551;DHT22;10936;49.836;7.078;2022-12-08T14:17:01;20.60;93.00
21551;DHT22;10936;49.836;7.078;2022-12-08T14:19:33;20.60;93.10
21551;DHT22;10936;49.836;7.078;2022-12-08T14:22:34;20.60;93.10
21551;DHT22;10936;49.836;7.078;2022-12-08T14:24:53;20.60;93.10
21551;DHT22;10936;49.836;7.078;2022-12-08T14:27:23;20.60;93.10
21551;DHT22;10936;49.836;7.078;2022-12-08T14:29:55;20.60;93.10
21551;DHT22;10936;49.836;7.078;2022-12-08T14:32:34;20.50;93.10
21551;DHT22;10936;49.836;7.078;2022-12-08T14:40:34;20.50;93.10
21551;DHT22;10936;49.836;7.078;2022-12-08T14:45:33;20.50;93.10
21551;DHT22;10936;49.836;7.078;2022-12-08T14:53:51;20.50;93.20
21551;DHT22;10936;49.836;7.078;2022-12-08T14:56:24;20.50;93.50
21551;DHT22;10936;49.836;7.078;2022-12-08T15:01:36;20.40;93.20
21551;DHT22;10936;49.836;7.078;2022-12-08T15:06:32;20.40;93.20
21551;DHT22;10936;49.836;7.078;2022-12-08T15:08:58;20.30;93.20
21551;DHT22;10936;49.836;7.078;2022-12-08T15:11:33;20.40;93.30
21551;DHT22;10936;49.836;7.078;2022-12-08T15:13:59;20.40;93.30
21551;DHT22;10936;49.836;7.078;2022-12-08T15:16:36;20.30;93.20
21551;DHT22;10936;49.836;7.078;2022-12-08T15:19:17;20.30;93.20
21551;DHT22;10936;49.836;7.078;2022-12-08T15:21:49;20.30;93.20
21551;DHT22;10936;49.836;7.078;2022-12-08T15:24:15;20.30;93.30
21551;DHT22;10936;49.836;7.078;2022-12-08T15:26:47;20.30;93.30
21551;DHT22;10936;49.836;7.078;2022-12-08T15:29:22;20.30;93.30
21551;DHT22;10936;49.836;7.078;2022-12-08T15:31:49;20.30;93.30
21551;DHT22;10936;49.836;7.078;2022-12-08T15:34:14;20.20;93.30
21551;DHT22;10936;49.836;7.078;2022-12-08T15:36:40;20.20;93.30
21551;DHT22;10936;49.836;7.078;2022-12-08T15:39:19;20.20;93.40
21551;DHT22;10936;49.836;7.078;2022-12-08T15:41:45;20.20;93.40
21551;DHT22;10936;49.836;7.078;2022-12-08T15:44:11;20.20;93.30
21551;DHT22;10936;49.836;7.078;2022-12-08T15:46:36;20.20;93.40
21551;DHT22;10936;49.836;7.078;2022-12-08T15:49:02;20.20;93.40
21551;DHT22;10936;49.836;7.078;2022-12-08T15:51:28;20.20;93.40
21551;DHT22;10936;49.836;7.078;2022-12-08T15:53:55;20.10;93.40
21551;DHT22;10936;49.836;7.078;2022-12-08T15:56:20;20.20;93.40
21551;DHT22;10936;49.836;7.078;2022-12-08T15:58:46;20.10;93.40
21551;DHT22;10936;49.836;7.078;2022-12-08T16:01:11;20.10;93.40
21551;DHT22;10936;49.836;7.078;2022-12-08T16:03:38;20.10;93.40
21551;DHT22;10936;49.836;7.078;2022-12-08T16:06:04;20.10;93.40
21551;DHT22;10936;49.836;7.078;2022-12-08T16:08:30;20.10;93.40
21551;DHT22;10936;49.836;7.078;2022-12-08T16:10:56;20.10;93.40
21551;DHT22;10936;49.836;7.078;2022-12-08T16:13:42;20.10;93.40
21551;DHT22;10936;49.836;7.078;2022-12-08T16:16:17;20.00;93.40
21551;DHT22;10936;49.836;7.078;2022-12-08T16:18:47;20.00;93.40
21551;DHT22;10936;49.836;7.078;2022-12-08T16:21:13;20.10;93.50
21551;DHT22;10936;49.836;7.078;2022-12-08T16:23:39;20.00;93.50
21551;DHT22;10936;49.836;7.078;2022-12-08T16:26:08;20.00;93.50
21551;DHT22;10936;49.836;7.078;2022-12-08T16:28:34;20.00;93.90
21551;DHT22;10936;49.836;7.078;2022-12-08T16:31:00;20.00;93.60
21551;DHT22;10936;49.836;7.078;2022-12-08T16:33:25;20.00;93.60
21551;DHT22;10936;49.836;7.078;2022-12-08T16:35:51;20.00;93.60
21551;DHT22;10936;49.836;7.078;2022-12-08T16:38:16;20.00;93.60
21551;DHT22;10936;49.836;7.078;2022-12-08T16:40:46;20.00;93.60
21551;DHT22;10936;49.836;7.078;2022-12-08T16:43:44;20.00;93.70
21551;DHT22;10936;49.836;7.078;2022-12-08T16:46:20;20.00;93.70
21551;DHT22;10936;49.836;7.078;2022-12-08T16:48:50;20.00;93.70
21551;DHT22;10936;49.836;7.078;2022-12-08T16:51:17;20.00;93.70
21551;DHT22;10936;49.836;7.078;2022-12-08T16:53:43;20.00;93.70
21551;DHT22;10936;49.836;7.078;2022-12-08T16:56:14;20.00;94.00
21551;DHT22;10936;49.836;7.078;2022-12-08T16:58:41;20.00;93.70
21551;DHT22;10936;49.836;7.078;2022-12-08T17:01:13;20.00;94.10
21551;DHT22;10936;49.836;7.078;2022-12-08T17:03:40;20.00;93.70
21551;DHT22;10936;49.836;7.078;2022-12-08T17:06:10;20.00;93.80
21551;DHT22;10936;49.836;7.078;2022-12-08T17:08:36;20.00;93.80
21551;DHT22;10936;49.836;7.078;2022-12-08T17:11:02;20.00;93.80
21551;DHT22;10936;49.836;7.078;2022-12-08T17:13:38;20.00;93.80
21551;DHT22;10936;49.836;7.078;2022-12-08T17:16:09;20.00;93.80
21551;DHT22;10936;49.836;7.078;2022-12-08T17:18:36;20.00;93.80
21551;DHT22;10936;49.836;7.078;2022-12-08T17:21:03;20.00;93.80
21551;DHT22;10936;49.836;7.078;2022-12-08T17:23:32;20.00;93.80
21551;DHT22;10936;49.836;7.078;2022-12-08T17:25:59;20.00;93.80
21551;DHT22;10936;49.836;7.078;2022-12-08T17:28:25;20.00;93.80
21551;DHT22;10936;49.836;7.078;2022-12-08T17:30:51;20.00;93.70
21551;DHT22;10936;49.836;7.078;2022-12-08T17:33:16;20.00;93.80
21551;DHT22;10936;49.836;7.078;2022-12-08T17:35:50;20.00;93.70
21551;DHT22;10936;49.836;7.078;2022-12-08T17:38:16;19.90;93.70
21551;DHT22;10936;49.836;7.078;2022-12-08T17:40:42;19.90;93.70
21551;DHT22;10936;49.836;7.078;2022-12-08T17:43:08;19.90;93.70
21551;DHT22;10936;49.836;7.078;2022-12-08T17:45:34;19.90;93.70
21551;DHT22;10936;49.836;7.078;2022-12-08T17:48:04;19.90;93.70
21551;DHT22;10936;49.836;7.078;2022-12-08T17:50:29;19.90;93.70
21551;DHT22;10936;49.836;7.078;2022-12-08T17:52:55;19.90;93.70
21551;DHT22;10936;49.836;7.078;2022-12-08T17:55:21;19.90;93.80
21551;DHT22;10936;49.836;7.078;2022-12-08T17:57:46;19.90;93.70
21551;DHT22;10936;49.836;7.078;2022-12-08T18:00:12;19.80;93.70
21551;DHT22;10936;49.836;7.078;2022-12-08T18:02:38;19.80;94.10
21551;DHT22;10936;49.836;7.078;2022-12-08T18:05:04;19.80;93.70
21551;DHT22;10936;49.836;7.078;2022-12-08T18:07:30;19.80;93.80
21551;DHT22;10936;49.836;7.078;2022-12-08T18:09:55;19.80;93.70
21551;DHT22;10936;49.836;7.078;2022-12-08T18:12:21;19.90;93.80
21551;DHT22;10936;49.836;7.078;2022-12-08T18:14:47;19.90;93.80
21551;DHT22;10936;49.836;7.078;2022-12-08T18:17:13;19.90;93.70
21551;DHT22;10936;49.836;7.078;2022-12-08T18:19:39;20.00;93.70
21551;DHT22;10936;49.836;7.078;2022-12-08T18:22:04;20.00;93.70
21551;DHT22;10936;49.836;7.078;2022-12-08T18:24:30;20.00;93.70
21551;DHT22;10936;49.836;7.078;2022-12-08T18:26:56;20.10;93.70
21551;DHT22;10936;49.836;7.078;2022-12-08T18:29:22;20.10;93.80
21551;DHT22;10936;49.836;7.078;2022-12-08T18:31:50;20.20;93.50
21551;DHT22;10936;49.836;7.078;2022-12-08T18:34:16;20.30;93.50
21551;DHT22;10936;49.836;7.078;2022-12-08T18:36:43;20.30;93.40
21551;DHT22;10936;49.836;7.078;2022-12-08T18:39:24;20.40;93.40
21551;DHT22;10936;49.836;7.078;2022-12-08T18:41:51;20.40;93.40
21551;DHT22;10936;49.836;7.078;2022-12-08T18:44:17;20.50;93.30
21551;DHT22;10936;49.836;7.078;2022-12-08T18:46:43;20.50;93.30
21551;DHT22;10936;49.836;7.078;2022-12-08T18:49:13;20.50;93.20
21551;DHT22;10936;49.836;7.078;2022-12-08T18:51:40;20.60;93.20
21551;DHT22;10936;49.836;7.078;2022-12-08T18:54:06;20.60;93.10
21551;DHT22;10936;49.836;7.078;2022-12-08T18:56:33;20.60;93.10
21551;DHT22;10936;49.836;7.078;2022-12-08T18:59:01;20.60;93.10
21551;DHT22;10936;49.836;7.078;2022-12-08T19:01:27;20.70;93.10
21551;DHT22;10936;49.836;7.078;2022-12-08T19:03:53;20.70;93.10
21551;DHT22;10936;49.836;7.078;2022-12-08T19:06:18;20.70;93.10
21551;DHT22;10936;49.836;7.078;2022-12-08T19:08:44;20.70;93.00
21551;DHT22;10936;49.836;7.078;2022-12-08T19:11:21;20.70;93.00
21551;DHT22;10936;49.836;7.078;2022-12-08T19:13:48;20.70;93.00
21551;DHT22;10936;49.836;7.078;2022-12-08T19:16:14;20.70;93.00
21551;DHT22;10936;49.836;7.078;2022-12-08T19:18:40;20.70;93.00
21551;DHT22;10936;49.836;7.078;2022-12-08T19:21:06;20.70;93.00
21551;DHT22;10936;49.836;7.078;2022-12-08T19:23:32;20.70;93.00
21551;DHT22;10936;49.836;7.078;2022-12-08T19:25:58;20.70;93.00
21551;DHT22;10936;49.836;7.078;2022-12-08T19:28:23;20.70;93.00
21551;DHT22;10936;49.836;7.078;2022-12-08T19:30:49;20.70;93.00
21551;DHT22;10936;49.836;7.078;2022-12-08T19:33:15;20.70;93.00
21551;DHT22;10936;49.836;7.078;2022-12-08T19:35:40;20.70;93.00
21551;DHT22;10936;49.836;7.078;2022-12-08T19:38:06;20.70;93.00
21551;DHT22;10936;49.836;7.078;2022-12-08T19:40:31;20.60;93.00
21551;DHT22;10936;49.836;7.078;2022-12-08T19:43:17;20.70;93.10
21551;DHT22;10936;49.836;7.078;2022-12-08T19:46:03;20.60;93.00
21551;DHT22;10936;49.836;7.078;2022-12-08T19:48:28;20.60;93.10
21551;DHT22;10936;49.836;7.078;2022-12-08T19:50:54;20.70;93.10
21551;DHT22;10936;49.836;7.078;2022-12-08T19:53:20;20.60;93.10
21551;DHT22;10936;49.836;7.078;2022-12-08T19:55:46;20.60;93.40
21551;DHT22;10936;49.836;7.078;2022-12-08T19:58:12;20.60;93.10
21551;DHT22;10936;49.836;7.078;2022-12-08T20:00:39;20.60;93.10
21551;DHT22;10936;49.836;7.078;2022-12-08T20:03:05;20.60;93.10
21551;DHT22;10936;49.836;7.078;2022-12-08T20:05:31;20.60;93.10
21551;DHT22;10936;49.836;7.078;2022-12-08T20:07:58;20.60;93.10
21551;DHT22;10936;49.836;7.078;2022-12-08T20:10:27;20.50;93.10
21551;DHT22;10936;49.836;7.078;2022-12-08T20:12:56;20.60;93.10
21551;DHT22;10936;49.836;7.078;2022-12-08T20:15:42;20.60;93.50
21551;DHT22;10936;49.836;7.078;2022-12-08T20:18:08;20.50;93.10
21551;DHT22;10936;49.836;7.078;2022-12-08T20:20:34;20.50;93.10
21551;DHT22;10936;49.836;7.078;2022-12-08T20:22:59;20.50;93.10
21551;DHT22;10936;49.836;7.078;2022-12-08T20:25:25;20.50;93.10
21551;DHT22;10936;49.836;7.078;2022-12-08T20:27:51;20.50;93.20
21551;DHT22;10936;49.836;7.078;2022-12-08T20:30:16;20.50;93.20
21551;DHT22;10936;49.836;7.078;2022-12-08T20:32:42;20.50;93.20
21551;DHT22;10936;49.836;7.078;2022-12-08T20:35:08;20.50;93.20
21551;DHT22;10936;49.836;7.078;2022-12-08T20:37:33;20.40;93.20
21551;DHT22;10936;49.836;7.078;2022-12-08T20:39:59;20.50;93.20
21551;DHT22;10936;49.836;7.078;2022-12-08T20:42:25;20.40;93.20
21551;DHT22;10936;49.836;7.078;2022-12-08T20:44:50;20.40;93.20
21551;DHT22;10936;49.836;7.078;2022-12-08T20:47:16;20.40;93.20
21551;DHT22;10936;49.836;7.078;2022-12-08T20:49:41;20.40;93.30
21551;DHT22;10936;49.836;7.078;2022-12-08T20:52:07;20.40;93.20
21551;DHT22;10936;49.836;7.078;2022-12-08T20:54:33;20.40;93.30
21551;DHT22;10936;49.836;7.078;2022-12-08T20:56:59;20.30;93.30
21551;DHT22;10936;49.836;7.078;2022-12-08T20:59:25;20.30;93.30
21551;DHT22;10936;49.836;7.078;2022-12-08T21:01:52;20.30;93.30
21551;DHT22;10936;49.836;7.078;2022-12-08T21:04:18;20.30;93.30
21551;DHT22;10936;49.836;7.078;2022-12-08T21:06:44;20.30;93.30
21551;DHT22;10936;49.836;7.078;2022-12-08T21:09:10;20.30;93.30
21551;DHT22;10936;49.836;7.078;2022-12-08T21:11:36;20.30;93.30
21551;DHT22;10936;49.836;7.078;2022-12-08T21:14:01;20.30;93.30
21551;DHT22;10936;49.836;7.078;2022-12-08T21:16:27;20.30;93.30
21551;DHT22;10936;49.836;7.078;2022-12-08T21:18:52;20.20;93.30
21551;DHT22;10936;49.836;7.078;2022-12-08T21:21:18;20.20;93.30
21551;DHT22;10936;49.836;7.078;2022-12-08T21:23:44;20.20;93.30
21551;DHT22;10936;49.836;7.078;2022-12-08T21:26:12;20.20;93.30
21551;DHT22;10936;49.836;7.078;2022-12-08T21:28:38;20.20;93.30
21551;DHT22;10936;49.836;7.078;2022-12-08T21:31:15;20.20;93.30
21551;DHT22;10936;49.836;7.078;2022-12-08T21:33:41;20.20;93.40
21551;DHT22;10936;49.836;7.078;2022-12-08T21:36:11;20.20;93.40
21551;DHT22;10936;49.836;7.078;2022-12-08T21:38:38;20.20;93.40
21551;DHT22;10936;49.836;7.078;2022-12-08T21:41:06;20.20;93.40
21551;DHT22;10936;49.836;7.078;2022-12-08T21:43:32;20.10;93.40
21551;DHT22;10936;49.836;7.078;2022-12-08T21:45:58;20.10;93.40
21551;DHT22;10936;49.836;7.078;2022-12-08T21:48:24;20.10;93.40
21551;DHT22;10936;49.836;7.078;2022-12-08T21:50:50;20.10;93.40
21551;DHT22;10936;49.836;7.078;2022-12-08T21:53:15;20.10;93.40
21551;DHT22;10936;49.836;7.078;2022-12-08T21:55:41;20.10;93.40
21551;DHT22;10936;49.836;7.078;2022-12-08T21:58:06;20.10;93.40
21551;DHT22;10936;49.836;7.078;2022-12-08T22:00:32;20.10;93.40
21551;DHT22;10936;49.836;7.078;2022-12-08T22:02:58;20.10;93.40
21551;DHT22;10936;49.836;7.078;2022-12-08T22:05:23;20.00;93.40
21551;DHT22;10936;49.836;7.078;2022-12-08T22:07:49;20.00;93.40
21551;DHT22;10936;49.836;7.078;2022-12-08T22:10:15;20.00;93.50
21551;DHT22;10936;49.836;7.078;2022-12-08T22:12:40;20.00;93.50
21551;DHT22;10936;49.836;7.078;2022-12-08T22:15:06;20.00;93.50
21551;DHT22;10936;49.836;7.078;2022-12-08T22:17:40;20.00;93.50
21551;DHT22;10936;49.836;7.078;2022-12-08T22:20:11;20.00;93.50
21551;DHT22;10936;49.836;7.078;2022-12-08T22:22:37;20.00;93.80
21551;DHT22;10936;49.836;7.078;2022-12-08T22:25:04;20.00;93.50
21551;DHT22;10936;49.836;7.078;2022-12-08T22:27:32;19.90;93.50
21551;DHT22;10936;49.836;7.078;2022-12-08T22:29:58;20.00;93.50
